Euro Snow — VQGH9 — position and weather

sailwx.info

Track history (hours):
 
Tides and Currents Weather Stations Pressure Air Temp Water Temp Dewpoint Dewpoint Depression Visibility Wind Speed Wind Dir Waves Ship Positions

Euro Snow

Last reported at 2017-Dec-08 23:48 UTC. Time now 2017-Dec-16 17:09 UTC.
Position N 36°14' E 027°04'.

Length 133 m; draft 5.8 m.

Type: Ship (hazmat cat A). MMSI: 235613000.

Date/timePositionNaut miles runAvg speedWind from/ knotsBaromVisibWave heightAir tempDewpointWater temp
2017-Dec-08 23:48N 36°14' E 027°04'5316.4
2017-Dec-08 20:34N 37°03' E 026°39'116.6
2017-Dec-08 20:30N 37°04' E 026°39'816.5
2017-Dec-08 20:00N 37°13' E 026°39'816.7
2017-Dec-08 19:30N 37°21' E 026°38'1216.8
2017-Dec-08 18:47N 37°33' E 026°36'516.6
2017-Dec-08 18:30N 37°38' E 026°35'1116.5
2017-Dec-08 17:50N 37°47' E 026°29'616.7
2017-Dec-08 17:30N 37°52' E 026°25'  
Track history (hours):
 
Tides and Currents Weather Stations Pressure Air Temp Water Temp Dewpoint Dewpoint Depression Visibility Wind Speed Wind Dir Waves Ship Positions

Euro Snow

Last reported at 2017-Dec-08 23:48 UTC. Time now 2017-Dec-16 17:09 UTC.
Position N 36°14' E 027°04'.

Length 133 m; draft 5.8 m.

Type: Ship (hazmat cat A). MMSI: 235613000.

Date/timePositionNaut miles runAvg speedWind from/ knotsBaromVisibWave heightAir tempDewpointWater temp
2017-Dec-08 23:48N 36°14' E 027°04'5316.4
2017-Dec-08 20:34N 37°03' E 026°39'116.6
2017-Dec-08 20:30N 37°04' E 026°39'816.5
2017-Dec-08 20:00N 37°13' E 026°39'816.7
2017-Dec-08 19:30N 37°21' E 026°38'1216.8
2017-Dec-08 18:47N 37°33' E 026°36'516.6
2017-Dec-08 18:30N 37°38' E 026°35'1116.5
2017-Dec-08 17:50N 37°47' E 026°29'616.7
2017-Dec-08 17:30N 37°52' E 026°25'  

Dump ship's entire track history